sensor_id;sensor_type;location;lat;lon;timestamp;temperature;humidity
37844;DHT22;63793;57.632;18.292;2023-11-21T00:00:35;1.50;99.90
37844;DHT22;63793;57.632;18.292;2023-11-21T00:03:02;1.50;99.90
37844;DHT22;63793;57.632;18.292;2023-11-21T00:05:30;1.50;99.90
37844;DHT22;63793;57.632;18.292;2023-11-21T00:07:57;1.40;99.90
37844;DHT22;63793;57.632;18.292;2023-11-21T00:10:24;1.40;99.90
37844;DHT22;63793;57.632;18.292;2023-11-21T00:12:51;1.40;99.90
37844;DHT22;63793;57.632;18.292;2023-11-21T00:15:18;1.40;99.90
37844;DHT22;63793;57.632;18.292;2023-11-21T00:17:45;1.40;99.90
37844;DHT22;63793;57.632;18.292;2023-11-21T00:20:13;1.40;99.90
37844;DHT22;63793;57.632;18.292;2023-11-21T00:22:41;1.30;99.90
37844;DHT22;63793;57.632;18.292;2023-11-21T00:25:08;1.30;99.90
37844;DHT22;63793;57.632;18.292;2023-11-21T00:27:36;1.30;99.90
37844;DHT22;63793;57.632;18.292;2023-11-21T00:30:03;1.30;99.90
37844;DHT22;63793;57.632;18.292;2023-11-21T00:32:35;1.30;99.90
37844;DHT22;63793;57.632;18.292;2023-11-21T00:35:03;1.30;99.90
37844;DHT22;63793;57.632;18.292;2023-11-21T00:37:30;1.30;99.90
37844;DHT22;63793;57.632;18.292;2023-11-21T00:39:59;1.20;99.90
37844;DHT22;63793;57.632;18.292;2023-11-21T00:42:26;1.30;99.90
37844;DHT22;63793;57.632;18.292;2023-11-21T00:44:54;1.20;99.90
37844;DHT22;63793;57.632;18.292;2023-11-21T00:47:21;1.20;99.90
37844;DHT22;63793;57.632;18.292;2023-11-21T00:49:49;1.20;99.90
37844;DHT22;63793;57.632;18.292;2023-11-21T00:52:16;1.20;99.90
37844;DHT22;63793;57.632;18.292;2023-11-21T00:54:43;1.20;99.90
37844;DHT22;63793;57.632;18.292;2023-11-21T00:57:11;1.20;99.90
37844;DHT22;63793;57.632;18.292;2023-11-21T00:59:38;1.20;99.90
37844;DHT22;63793;57.632;18.292;2023-11-21T01:02:06;1.20;99.90
37844;DHT22;63793;57.632;18.292;2023-11-21T01:04:36;1.20;99.90
37844;DHT22;63793;57.632;18.292;2023-11-21T01:07:04;1.20;99.90
37844;DHT22;63793;57.632;18.292;2023-11-21T01:09:32;1.20;99.90
37844;DHT22;63793;57.632;18.292;2023-11-21T01:11:59;1.20;99.90
37844;DHT22;63793;57.632;18.292;2023-11-21T01:14:27;1.10;99.90
37844;DHT22;63793;57.632;18.292;2023-11-21T01:16:54;1.10;99.90
37844;DHT22;63793;57.632;18.292;2023-11-21T01:19:21;1.10;99.90
37844;DHT22;63793;57.632;18.292;2023-11-21T01:21:48;1.10;99.90
37844;DHT22;63793;57.632;18.292;2023-11-21T01:24:15;1.10;99.90
37844;DHT22;63793;57.632;18.292;2023-11-21T01:26:42;1.10;99.90
37844;DHT22;63793;57.632;18.292;2023-11-21T01:29:10;1.10;99.90
37844;DHT22;63793;57.632;18.292;2023-11-21T01:31:36;1.10;99.90
37844;DHT22;63793;57.632;18.292;2023-11-21T01:34:04;1.00;99.90
37844;DHT22;63793;57.632;18.292;2023-11-21T01:36:32;1.10;99.90
37844;DHT22;63793;57.632;18.292;2023-11-21T01:38:59;1.10;99.90
37844;DHT22;63793;57.632;18.292;2023-11-21T01:41:27;1.10;99.90
37844;DHT22;63793;57.632;18.292;2023-11-21T01:43:57;1.10;99.90
37844;DHT22;63793;57.632;18.292;2023-11-21T01:46:24;1.10;99.90
37844;DHT22;63793;57.632;18.292;2023-11-21T01:48:52;1.10;99.90
37844;DHT22;63793;57.632;18.292;2023-11-21T01:51:20;1.10;99.90
37844;DHT22;63793;57.632;18.292;2023-11-21T01:53:47;1.00;99.90
37844;DHT22;63793;57.632;18.292;2023-11-21T01:56:15;1.00;99.90
37844;DHT22;63793;57.632;18.292;2023-11-21T01:58:42;1.00;99.90
37844;DHT22;63793;57.632;18.292;2023-11-21T02:01:10;1.00;99.90
37844;DHT22;63793;57.632;18.292;2023-11-21T02:03:37;1.00;99.90
37844;DHT22;63793;57.632;18.292;2023-11-21T02:06:05;1.00;99.90
37844;DHT22;63793;57.632;18.292;2023-11-21T02:08:32;1.00;99.90
37844;DHT22;63793;57.632;18.292;2023-11-21T02:10:59;1.00;99.90
37844;DHT22;63793;57.632;18.292;2023-11-21T02:13:26;1.00;99.90
37844;DHT22;63793;57.632;18.292;2023-11-21T02:15:53;1.00;99.90
37844;DHT22;63793;57.632;18.292;2023-11-21T02:18:21;1.00;99.90
37844;DHT22;63793;57.632;18.292;2023-11-21T02:20:49;0.90;99.90
37844;DHT22;63793;57.632;18.292;2023-11-21T02:23:16;0.90;99.90
37844;DHT22;63793;57.632;18.292;2023-11-21T02:25:43;0.90;99.90
37844;DHT22;63793;57.632;18.292;2023-11-21T02:28:10;0.90;99.90
37844;DHT22;63793;57.632;18.292;2023-11-21T02:30:40;0.90;99.90
37844;DHT22;63793;57.632;18.292;2023-11-21T02:33:07;0.90;99.90
37844;DHT22;63793;57.632;18.292;2023-11-21T02:35:34;0.90;99.90
37844;DHT22;63793;57.632;18.292;2023-11-21T02:38:01;0.90;99.90
37844;DHT22;63793;57.632;18.292;2023-11-21T02:40:29;0.90;99.90
37844;DHT22;63793;57.632;18.292;2023-11-21T02:42:57;0.90;99.90
37844;DHT22;63793;57.632;18.292;2023-11-21T02:45:26;0.90;99.90
37844;DHT22;63793;57.632;18.292;2023-11-21T02:47:53;0.90;99.90
37844;DHT22;63793;57.632;18.292;2023-11-21T02:50:20;0.90;99.90
37844;DHT22;63793;57.632;18.292;2023-11-21T02:52:50;0.90;99.90
37844;DHT22;63793;57.632;18.292;2023-11-21T02:55:19;0.90;99.90
37844;DHT22;63793;57.632;18.292;2023-11-21T02:57:46;0.90;99.90
37844;DHT22;63793;57.632;18.292;2023-11-21T03:00:13;0.90;99.90
37844;DHT22;63793;57.632;18.292;2023-11-21T03:02:42;0.90;99.90
37844;DHT22;63793;57.632;18.292;2023-11-21T03:05:09;0.90;99.90
37844;DHT22;63793;57.632;18.292;2023-11-21T03:07:37;0.90;99.90
37844;DHT22;63793;57.632;18.292;2023-11-21T03:10:06;0.90;99.90
37844;DHT22;63793;57.632;18.292;2023-11-21T03:12:37;0.90;99.90
37844;DHT22;63793;57.632;18.292;2023-11-21T03:15:08;0.90;99.90
37844;DHT22;63793;57.632;18.292;2023-11-21T03:17:36;1.00;99.90
37844;DHT22;63793;57.632;18.292;2023-11-21T03:20:04;1.00;99.90
37844;DHT22;63793;57.632;18.292;2023-11-21T03:22:31;1.00;99.90
37844;DHT22;63793;57.632;18.292;2023-11-21T03:24:58;1.00;99.90
37844;DHT22;63793;57.632;18.292;2023-11-21T03:27:26;1.00;99.90
37844;DHT22;63793;57.632;18.292;2023-11-21T03:29:53;1.00;99.90
37844;DHT22;63793;57.632;18.292;2023-11-21T03:32:21;0.90;99.90
37844;DHT22;63793;57.632;18.292;2023-11-21T03:34:59;1.00;99.90
37844;DHT22;63793;57.632;18.292;2023-11-21T03:37:26;1.00;99.90
37844;DHT22;63793;57.632;18.292;2023-11-21T03:39:55;1.00;99.90
37844;DHT22;63793;57.632;18.292;2023-11-21T03:42:23;1.00;99.90
37844;DHT22;63793;57.632;18.292;2023-11-21T03:44:53;1.00;99.90
37844;DHT22;63793;57.632;18.292;2023-11-21T03:47:20;1.00;99.90
37844;DHT22;63793;57.632;18.292;2023-11-21T03:49:47;1.00;99.90
37844;DHT22;63793;57.632;18.292;2023-11-21T03:52:15;0.90;99.90
37844;DHT22;63793;57.632;18.292;2023-11-21T03:54:42;0.90;99.90
37844;DHT22;63793;57.632;18.292;2023-11-21T03:57:10;1.00;99.90
37844;DHT22;63793;57.632;18.292;2023-11-21T03:59:41;0.90;99.90
37844;DHT22;63793;57.632;18.292;2023-11-21T04:02:08;0.90;99.90
37844;DHT22;63793;57.632;18.292;2023-11-21T04:04:36;1.00;99.90
37844;DHT22;63793;57.632;18.292;2023-11-21T04:07:03;0.90;99.90
37844;DHT22;63793;57.632;18.292;2023-11-21T04:09:31;0.90;99.90
37844;DHT22;63793;57.632;18.292;2023-11-21T04:11:58;0.90;99.90
37844;DHT22;63793;57.632;18.292;2023-11-21T04:14:25;0.90;99.90
37844;DHT22;63793;57.632;18.292;2023-11-21T04:16:52;0.90;99.90
37844;DHT22;63793;57.632;18.292;2023-11-21T04:19:20;0.90;99.90
37844;DHT22;63793;57.632;18.292;2023-11-21T04:21:47;0.90;99.90
37844;DHT22;63793;57.632;18.292;2023-11-21T04:24:14;0.90;99.90
37844;DHT22;63793;57.632;18.292;2023-11-21T04:26:41;0.90;99.90
37844;DHT22;63793;57.632;18.292;2023-11-21T04:29:08;0.90;99.90
37844;DHT22;63793;57.632;18.292;2023-11-21T04:31:35;0.90;99.90
37844;DHT22;63793;57.632;18.292;2023-11-21T04:34:02;0.90;99.90
37844;DHT22;63793;57.632;18.292;2023-11-21T04:36:30;1.00;99.90
37844;DHT22;63793;57.632;18.292;2023-11-21T04:38:58;1.00;99.90
37844;DHT22;63793;57.632;18.292;2023-11-21T04:41:25;1.00;99.90
37844;DHT22;63793;57.632;18.292;2023-11-21T04:43:51;1.00;99.90
37844;DHT22;63793;57.632;18.292;2023-11-21T04:46:18;1.00;99.90
37844;DHT22;63793;57.632;18.292;2023-11-21T04:48:46;1.00;99.90
37844;DHT22;63793;57.632;18.292;2023-11-21T04:51:13;1.00;99.90
37844;DHT22;63793;57.632;18.292;2023-11-21T04:53:41;1.00;99.90
37844;DHT22;63793;57.632;18.292;2023-11-21T04:56:08;1.00;99.90
37844;DHT22;63793;57.632;18.292;2023-11-21T04:58:34;1.00;99.90
37844;DHT22;63793;57.632;18.292;2023-11-21T05:01:02;1.00;99.90
37844;DHT22;63793;57.632;18.292;2023-11-21T05:03:34;1.00;99.90
37844;DHT22;63793;57.632;18.292;2023-11-21T05:06:01;1.10;99.90
37844;DHT22;63793;57.632;18.292;2023-11-21T05:08:28;1.10;99.90
37844;DHT22;63793;57.632;18.292;2023-11-21T05:10:55;1.10;99.90
37844;DHT22;63793;57.632;18.292;2023-11-21T05:13:22;1.10;99.90
37844;DHT22;63793;57.632;18.292;2023-11-21T05:15:57;1.00;99.90
37844;DHT22;63793;57.632;18.292;2023-11-21T05:18:24;1.00;99.90
37844;DHT22;63793;57.632;18.292;2023-11-21T05:20:54;1.10;99.90
37844;DHT22;63793;57.632;18.292;2023-11-21T05:23:21;1.10;99.90
37844;DHT22;63793;57.632;18.292;2023-11-21T05:25:48;1.10;99.90
37844;DHT22;63793;57.632;18.292;2023-11-21T05:28:14;1.10;99.90
37844;DHT22;63793;57.632;18.292;2023-11-21T05:30:41;1.10;99.90
37844;DHT22;63793;57.632;18.292;2023-11-21T05:33:08;1.10;99.90
37844;DHT22;63793;57.632;18.292;2023-11-21T05:35:35;1.10;99.90
37844;DHT22;63793;57.632;18.292;2023-11-21T05:38:02;1.10;99.90
37844;DHT22;63793;57.632;18.292;2023-11-21T05:40:29;1.10;99.90
37844;DHT22;63793;57.632;18.292;2023-11-21T05:42:56;1.10;99.90
37844;DHT22;63793;57.632;18.292;2023-11-21T05:45:23;1.10;99.90
37844;DHT22;63793;57.632;18.292;2023-11-21T05:47:50;1.00;99.90
37844;DHT22;63793;57.632;18.292;2023-11-21T05:50:17;1.10;99.90
37844;DHT22;63793;57.632;18.292;2023-11-21T05:52:46;1.00;99.90
37844;DHT22;63793;57.632;18.292;2023-11-21T05:55:13;1.10;99.90
37844;DHT22;63793;57.632;18.292;2023-11-21T05:57:42;1.00;99.90
37844;DHT22;63793;57.632;18.292;2023-11-21T06:00:12;1.00;99.90
37844;DHT22;63793;57.632;18.292;2023-11-21T06:02:49;1.00;99.90
37844;DHT22;63793;57.632;18.292;2023-11-21T06:05:24;1.00;99.90
37844;DHT22;63793;57.632;18.292;2023-11-21T06:07:54;1.00;99.90
37844;DHT22;63793;57.632;18.292;2023-11-21T06:10:22;0.90;99.90
37844;DHT22;63793;57.632;18.292;2023-11-21T06:12:51;1.00;99.90
37844;DHT22;63793;57.632;18.292;2023-11-21T06:15:18;1.00;99.90
37844;DHT22;63793;57.632;18.292;2023-11-21T06:17:50;1.00;99.90
37844;DHT22;63793;57.632;18.292;2023-11-21T06:20:20;0.90;99.90
37844;DHT22;63793;57.632;18.292;2023-11-21T06:22:49;0.90;99.90
37844;DHT22;63793;57.632;18.292;2023-11-21T06:25:17;0.90;99.90
37844;DHT22;63793;57.632;18.292;2023-11-21T06:27:46;0.90;99.90
37844;DHT22;63793;57.632;18.292;2023-11-21T06:30:15;0.90;99.90
37844;DHT22;63793;57.632;18.292;2023-11-21T06:32:43;0.90;99.90
37844;DHT22;63793;57.632;18.292;2023-11-21T06:35:14;0.90;99.90
37844;DHT22;63793;57.632;18.292;2023-11-21T06:37:43;1.00;99.90
37844;DHT22;63793;57.632;18.292;2023-11-21T06:40:15;1.00;99.90
37844;DHT22;63793;57.632;18.292;2023-11-21T06:42:42;1.00;99.90
37844;DHT22;63793;57.632;18.292;2023-11-21T06:45:11;1.00;99.90
37844;DHT22;63793;57.632;18.292;2023-11-21T06:47:38;1.00;99.90
37844;DHT22;63793;57.632;18.292;2023-11-21T06:50:06;1.00;99.90
37844;DHT22;63793;57.632;18.292;2023-11-21T06:52:34;1.10;99.90
37844;DHT22;63793;57.632;18.292;2023-11-21T06:55:01;1.10;99.90
37844;DHT22;63793;57.632;18.292;2023-11-21T06:57:28;1.20;99.90
37844;DHT22;63793;57.632;18.292;2023-11-21T06:59:55;1.20;99.90
37844;DHT22;63793;57.632;18.292;2023-11-21T07:02:24;1.20;99.90
37844;DHT22;63793;57.632;18.292;2023-11-21T07:04:51;1.20;99.90
37844;DHT22;63793;57.632;18.292;2023-11-21T07:07:18;1.20;99.90
37844;DHT22;63793;57.632;18.292;2023-11-21T07:09:46;1.30;99.90
37844;DHT22;63793;57.632;18.292;2023-11-21T07:12:13;1.30;99.90
37844;DHT22;63793;57.632;18.292;2023-11-21T07:14:40;1.20;99.90
37844;DHT22;63793;57.632;18.292;2023-11-21T07:17:10;1.30;99.90
37844;DHT22;63793;57.632;18.292;2023-11-21T07:19:38;1.30;99.90
37844;DHT22;63793;57.632;18.292;2023-11-21T07:22:06;1.30;99.90
37844;DHT22;63793;57.632;18.292;2023-11-21T07:24:33;1.30;99.90
37844;DHT22;63793;57.632;18.292;2023-11-21T07:27:00;1.30;99.90
37844;DHT22;63793;57.632;18.292;2023-11-21T07:29:27;1.30;99.90
37844;DHT22;63793;57.632;18.292;2023-11-21T07:31:56;1.30;99.90
37844;DHT22;63793;57.632;18.292;2023-11-21T07:34:23;1.30;99.90
37844;DHT22;63793;57.632;18.292;2023-11-21T07:36:50;1.20;99.90
37844;DHT22;63793;57.632;18.292;2023-11-21T07:39:18;1.20;99.90
37844;DHT22;63793;57.632;18.292;2023-11-21T07:41:44;1.20;99.90
37844;DHT22;63793;57.632;18.292;2023-11-21T07:44:16;1.20;99.90
37844;DHT22;63793;57.632;18.292;2023-11-21T07:46:44;1.20;99.90
37844;DHT22;63793;57.632;18.292;2023-11-21T07:49:12;1.20;99.90
37844;DHT22;63793;57.632;18.292;2023-11-21T07:51:43;1.20;99.90
37844;DHT22;63793;57.632;18.292;2023-11-21T07:54:11;1.20;99.90
37844;DHT22;63793;57.632;18.292;2023-11-21T07:56:38;1.20;99.90
37844;DHT22;63793;57.632;18.292;2023-11-21T07:59:05;1.20;99.90
37844;DHT22;63793;57.632;18.292;2023-11-21T08:01:32;1.20;99.90
37844;DHT22;63793;57.632;18.292;2023-11-21T08:03:59;1.20;99.90
37844;DHT22;63793;57.632;18.292;2023-11-21T08:06:31;1.30;99.90
37844;DHT22;63793;57.632;18.292;2023-11-21T08:08:58;1.30;99.90
37844;DHT22;63793;57.632;18.292;2023-11-21T08:11:25;1.30;99.90
37844;DHT22;63793;57.632;18.292;2023-11-21T08:13:56;1.30;99.90
37844;DHT22;63793;57.632;18.292;2023-11-21T08:16:23;1.30;99.90
37844;DHT22;63793;57.632;18.292;2023-11-21T08:18:51;1.30;99.90
37844;DHT22;63793;57.632;18.292;2023-11-21T08:21:18;1.40;99.90
37844;DHT22;63793;57.632;18.292;2023-11-21T08:23:46;1.40;99.90
37844;DHT22;63793;57.632;18.292;2023-11-21T08:26:16;1.40;99.90
37844;DHT22;63793;57.632;18.292;2023-11-21T08:28:43;1.40;99.90
37844;DHT22;63793;57.632;18.292;2023-11-21T08:31:10;1.40;99.90
37844;DHT22;63793;57.632;18.292;2023-11-21T08:33:39;1.40;99.90
37844;DHT22;63793;57.632;18.292;2023-11-21T08:36:08;1.50;99.90
37844;DHT22;63793;57.632;18.292;2023-11-21T08:38:35;1.50;99.90
37844;DHT22;63793;57.632;18.292;2023-11-21T08:41:06;1.50;99.90
37844;DHT22;63793;57.632;18.292;2023-11-21T08:43:36;1.50;99.90
37844;DHT22;63793;57.632;18.292;2023-11-21T08:46:06;1.50;99.90
37844;DHT22;63793;57.632;18.292;2023-11-21T08:48:34;1.50;99.90
37844;DHT22;63793;57.632;18.292;2023-11-21T08:51:03;1.50;99.90
37844;DHT22;63793;57.632;18.292;2023-11-21T08:53:31;1.50;99.90
37844;DHT22;63793;57.632;18.292;2023-11-21T08:55:58;1.50;99.90
37844;DHT22;63793;57.632;18.292;2023-11-21T08:58:25;1.50;99.90
37844;DHT22;63793;57.632;18.292;2023-11-21T09:00:52;1.40;99.90
37844;DHT22;63793;57.632;18.292;2023-11-21T09:03:19;1.40;99.90
37844;DHT22;63793;57.632;18.292;2023-11-21T09:05:46;1.40;99.90
37844;DHT22;63793;57.632;18.292;2023-11-21T09:08:13;1.40;99.90
37844;DHT22;63793;57.632;18.292;2023-11-21T09:10:40;1.30;99.90
37844;DHT22;63793;57.632;18.292;2023-11-21T09:13:09;1.30;99.90
37844;DHT22;63793;57.632;18.292;2023-11-21T09:15:37;1.30;99.90
37844;DHT22;63793;57.632;18.292;2023-11-21T09:18:04;1.30;99.90
37844;DHT22;63793;57.632;18.292;2023-11-21T09:20:32;1.20;99.90
37844;DHT22;63793;57.632;18.292;2023-11-21T09:22:59;1.20;99.90
37844;DHT22;63793;57.632;18.292;2023-11-21T09:25:26;1.20;99.90
37844;DHT22;63793;57.632;18.292;2023-11-21T09:27:53;1.20;99.90
37844;DHT22;63793;57.632;18.292;2023-11-21T09:30:20;1.20;99.90
37844;DHT22;63793;57.632;18.292;2023-11-21T09:32:46;1.20;99.90
37844;DHT22;63793;57.632;18.292;2023-11-21T09:35:14;1.20;99.90
37844;DHT22;63793;57.632;18.292;2023-11-21T09:37:43;1.10;99.90
37844;DHT22;63793;57.632;18.292;2023-11-21T09:40:12;1.20;99.90
37844;DHT22;63793;57.632;18.292;2023-11-21T09:45:28;1.20;99.90
37844;DHT22;63793;57.632;18.292;2023-11-21T09:47:56;1.30;99.90
37844;DHT22;63793;57.632;18.292;2023-11-21T09:50:24;1.20;99.90
37844;DHT22;63793;57.632;18.292;2023-11-21T09:53:13;1.20;99.90
37844;DHT22;63793;57.632;18.292;2023-11-21T09:55:46;1.30;99.90
37844;DHT22;63793;57.632;18.292;2023-11-21T09:58:14;1.30;99.90
37844;DHT22;63793;57.632;18.292;2023-11-21T10:00:46;1.30;99.90
37844;DHT22;63793;57.632;18.292;2023-11-21T10:03:14;1.30;99.90
37844;DHT22;63793;57.632;18.292;2023-11-21T10:05:45;1.30;99.90
37844;DHT22;63793;57.632;18.292;2023-11-21T10:08:17;1.30;99.90
37844;DHT22;63793;57.632;18.292;2023-11-21T10:10:45;1.20;99.90
37844;DHT22;63793;57.632;18.292;2023-11-21T10:13:13;1.30;99.90
37844;DHT22;63793;57.632;18.292;2023-11-21T10:15:49;1.30;99.90
37844;DHT22;63793;57.632;18.292;2023-11-21T10:18:17;1.30;99.90
37844;DHT22;63793;57.632;18.292;2023-11-21T10:20:45;1.30;99.90
37844;DHT22;63793;57.632;18.292;2023-11-21T10:23:23;1.30;99.90
37844;DHT22;63793;57.632;18.292;2023-11-21T10:25:51;1.30;99.90
37844;DHT22;63793;57.632;18.292;2023-11-21T10:28:19;1.30;99.90
37844;DHT22;63793;57.632;18.292;2023-11-21T10:30:48;1.30;99.90
37844;DHT22;63793;57.632;18.292;2023-11-21T10:33:15;1.30;99.90
37844;DHT22;63793;57.632;18.292;2023-11-21T10:35:45;1.30;99.90
37844;DHT22;63793;57.632;18.292;2023-11-21T10:38:14;1.30;99.90
37844;DHT22;63793;57.632;18.292;2023-11-21T10:40:41;1.30;99.90
37844;DHT22;63793;57.632;18.292;2023-11-21T10:43:09;1.30;99.90
37844;DHT22;63793;57.632;18.292;2023-11-21T10:45:40;1.30;99.90
37844;DHT22;63793;57.632;18.292;2023-11-21T10:48:12;1.30;99.90
37844;DHT22;63793;57.632;18.292;2023-11-21T10:50:46;1.30;99.90
37844;DHT22;63793;57.632;18.292;2023-11-21T10:53:14;1.30;99.90
37844;DHT22;63793;57.632;18.292;2023-11-21T10:55:41;1.30;99.90
37844;DHT22;63793;57.632;18.292;2023-11-21T10:58:13;1.30;99.90
37844;DHT22;63793;57.632;18.292;2023-11-21T11:00:40;1.30;99.90
37844;DHT22;63793;57.632;18.292;2023-11-21T11:03:08;1.30;99.90
37844;DHT22;63793;57.632;18.292;2023-11-21T11:05:44;1.30;99.90
37844;DHT22;63793;57.632;18.292;2023-11-21T11:08:21;1.30;99.90
37844;DHT22;63793;57.632;18.292;2023-11-21T11:10:55;1.40;99.90
37844;DHT22;63793;57.632;18.292;2023-11-21T11:13:22;1.40;99.90
37844;DHT22;63793;57.632;18.292;2023-11-21T11:15:50;1.40;99.90
37844;DHT22;63793;57.632;18.292;2023-11-21T11:18:18;1.50;99.90
37844;DHT22;63793;57.632;18.292;2023-11-21T11:20:50;1.50;99.90
37844;DHT22;63793;57.632;18.292;2023-11-21T11:29:55;1.50;99.90
37844;DHT22;63793;57.632;18.292;2023-11-21T11:32:25;1.50;99.90
37844;DHT22;63793;57.632;18.292;2023-11-21T11:35:01;1.50;99.90
37844;DHT22;63793;57.632;18.292;2023-11-21T11:37:30;1.60;99.90
37844;DHT22;63793;57.632;18.292;2023-11-21T11:39:59;1.60;99.90
37844;DHT22;63793;57.632;18.292;2023-11-21T11:42:26;1.60;99.90
37844;DHT22;63793;57.632;18.292;2023-11-21T11:44:53;1.60;99.90
37844;DHT22;63793;57.632;18.292;2023-11-21T11:47:24;1.70;99.90
37844;DHT22;63793;57.632;18.292;2023-11-21T11:50:12;1.80;99.90
37844;DHT22;63793;57.632;18.292;2023-11-21T11:52:51;1.80;99.90
37844;DHT22;63793;57.632;18.292;2023-11-21T11:55:21;1.90;99.90
37844;DHT22;63793;57.632;18.292;2023-11-21T11:57:53;1.90;99.90
37844;DHT22;63793;57.632;18.292;2023-11-21T12:00:43;1.80;99.90
37844;DHT22;63793;57.632;18.292;2023-11-21T12:03:13;1.80;99.90
37844;DHT22;63793;57.632;18.292;2023-11-21T12:05:40;1.80;99.90
37844;DHT22;63793;57.632;18.292;2023-11-21T12:08:11;1.80;99.90
37844;DHT22;63793;57.632;18.292;2023-11-21T12:10:39;1.80;99.90
37844;DHT22;63793;57.632;18.292;2023-11-21T12:13:10;1.70;99.90
37844;DHT22;63793;57.632;18.292;2023-11-21T12:15:40;1.80;99.90
37844;DHT22;63793;57.632;18.292;2023-11-21T12:18:08;1.80;99.90
37844;DHT22;63793;57.632;18.292;2023-11-21T12:20:36;1.80;99.90
37844;DHT22;63793;57.632;18.292;2023-11-21T12:23:06;1.80;99.90
37844;DHT22;63793;57.632;18.292;2023-11-21T12:25:35;1.80;99.90
37844;DHT22;63793;57.632;18.292;2023-11-21T12:28:03;1.80;99.90
37844;DHT22;63793;57.632;18.292;2023-11-21T12:30:33;1.80;99.90
37844;DHT22;63793;57.632;18.292;2023-11-21T12:33:03;1.70;99.90
37844;DHT22;63793;57.632;18.292;2023-11-21T12:35:33;1.70;99.90
37844;DHT22;63793;57.632;18.292;2023-11-21T12:38:04;1.70;99.90
37844;DHT22;63793;57.632;18.292;2023-11-21T12:40:31;1.60;99.90
37844;DHT22;63793;57.632;18.292;2023-11-21T12:43:00;1.60;99.90
37844;DHT22;63793;57.632;18.292;2023-11-21T12:45:28;1.60;99.90
37844;DHT22;63793;57.632;18.292;2023-11-21T12:48:03;1.70;99.90
37844;DHT22;63793;57.632;18.292;2023-11-21T12:50:35;1.70;99.90
37844;DHT22;63793;57.632;18.292;2023-11-21T12:53:12;1.70;99.90
37844;DHT22;63793;57.632;18.292;2023-11-21T12:55:40;1.80;99.90
37844;DHT22;63793;57.632;18.292;2023-11-21T12:58:09;1.80;99.90
37844;DHT22;63793;57.632;18.292;2023-11-21T13:03:12;1.90;99.90
37844;DHT22;63793;57.632;18.292;2023-11-21T13:05:48;2.00;99.90
37844;DHT22;63793;57.632;18.292;2023-11-21T13:08:22;2.00;99.90
37844;DHT22;63793;57.632;18.292;2023-11-21T13:10:55;2.00;99.90
37844;DHT22;63793;57.632;18.292;2023-11-21T13:13:25;2.10;99.90
37844;DHT22;63793;57.632;18.292;2023-11-21T13:15:57;2.10;99.90
37844;DHT22;63793;57.632;18.292;2023-11-21T13:18:28;2.20;99.90
37844;DHT22;63793;57.632;18.292;2023-11-21T13:20:57;2.30;99.90
37844;DHT22;63793;57.632;18.292;2023-11-21T13:23:26;2.30;99.90
37844;DHT22;63793;57.632;18.292;2023-11-21T13:25:53;2.40;99.90
37844;DHT22;63793;57.632;18.292;2023-11-21T13:28:31;2.40;99.90
37844;DHT22;63793;57.632;18.292;2023-11-21T13:31:01;2.40;99.90
37844;DHT22;63793;57.632;18.292;2023-11-21T13:33:36;2.50;99.90
37844;DHT22;63793;57.632;18.292;2023-11-21T13:36:09;2.40;99.90
37844;DHT22;63793;57.632;18.292;2023-11-21T13:38:37;2.50;99.90
37844;DHT22;63793;57.632;18.292;2023-11-21T13:41:09;2.50;99.90
37844;DHT22;63793;57.632;18.292;2023-11-21T13:43:39;2.50;99.90
37844;DHT22;63793;57.632;18.292;2023-11-21T13:46:06;2.50;99.90
37844;DHT22;63793;57.632;18.292;2023-11-21T13:48:49;2.50;99.90
37844;DHT22;63793;57.632;18.292;2023-11-21T13:51:23;2.40;99.90
37844;DHT22;63793;57.632;18.292;2023-11-21T13:54:04;2.40;99.90
37844;DHT22;63793;57.632;18.292;2023-11-21T13:56:36;2.40;99.90
37844;DHT22;63793;57.632;18.292;2023-11-21T13:59:03;2.40;99.90
37844;DHT22;63793;57.632;18.292;2023-11-21T14:01:41;2.40;99.90
37844;DHT22;63793;57.632;18.292;2023-11-21T14:04:21;2.40;99.90
37844;DHT22;63793;57.632;18.292;2023-11-21T14:07:06;2.40;99.90
37844;DHT22;63793;57.632;18.292;2023-11-21T14:09:51;2.40;99.90
37844;DHT22;63793;57.632;18.292;2023-11-21T14:12:20;2.40;99.90
37844;DHT22;63793;57.632;18.292;2023-11-21T14:14:48;2.40;99.90
37844;DHT22;63793;57.632;18.292;2023-11-21T14:17:15;2.40;99.90
37844;DHT22;63793;57.632;18.292;2023-11-21T14:19:42;2.40;99.90
37844;DHT22;63793;57.632;18.292;2023-11-21T14:22:11;2.30;99.90
37844;DHT22;63793;57.632;18.292;2023-11-21T14:24:38;2.30;99.90
37844;DHT22;63793;57.632;18.292;2023-11-21T14:27:10;2.30;99.90
37844;DHT22;63793;57.632;18.292;2023-11-21T14:29:37;2.30;99.90
37844;DHT22;63793;57.632;18.292;2023-11-21T14:32:07;2.20;99.90
37844;DHT22;63793;57.632;18.292;2023-11-21T14:34:34;2.20;99.90
37844;DHT22;63793;57.632;18.292;2023-11-21T14:37:01;2.20;99.90
37844;DHT22;63793;57.632;18.292;2023-11-21T14:39:29;2.10;99.90
37844;DHT22;63793;57.632;18.292;2023-11-21T14:41:57;2.10;99.90
37844;DHT22;63793;57.632;18.292;2023-11-21T14:44:25;2.10;99.90
37844;DHT22;63793;57.632;18.292;2023-11-21T14:46:55;2.10;99.90
37844;DHT22;63793;57.632;18.292;2023-11-21T14:49:25;2.10;99.90
37844;DHT22;63793;57.632;18.292;2023-11-21T14:51:55;2.10;99.90
37844;DHT22;63793;57.632;18.292;2023-11-21T14:54:24;2.10;99.90
37844;DHT22;63793;57.632;18.292;2023-11-21T14:57:07;2.00;99.90
37844;DHT22;63793;57.632;18.292;2023-11-21T14:59:47;2.10;99.90
37844;DHT22;63793;57.632;18.292;2023-11-21T15:02:18;2.00;99.90
37844;DHT22;63793;57.632;18.292;2023-11-21T15:04:49;2.00;99.90
37844;DHT22;63793;57.632;18.292;2023-11-21T15:07:20;2.00;99.90
37844;DHT22;63793;57.632;18.292;2023-11-21T15:09:47;2.00;99.90
37844;DHT22;63793;57.632;18.292;2023-11-21T15:12:16;2.00;99.90
37844;DHT22;63793;57.632;18.292;2023-11-21T15:14:48;2.10;99.90
37844;DHT22;63793;57.632;18.292;2023-11-21T15:17:19;2.10;99.90
37844;DHT22;63793;57.632;18.292;2023-11-21T15:19:53;2.20;99.90
37844;DHT22;63793;57.632;18.292;2023-11-21T15:22:21;2.20;99.90
37844;DHT22;63793;57.632;18.292;2023-11-21T15:24:48;2.30;99.90
37844;DHT22;63793;57.632;18.292;2023-11-21T15:27:16;2.30;99.90
37844;DHT22;63793;57.632;18.292;2023-11-21T15:29:44;2.30;99.90
37844;DHT22;63793;57.632;18.292;2023-11-21T15:32:11;2.30;99.90
37844;DHT22;63793;57.632;18.292;2023-11-21T15:34:39;2.30;99.90
37844;DHT22;63793;57.632;18.292;2023-11-21T15:37:07;2.30;99.90
37844;DHT22;63793;57.632;18.292;2023-11-21T15:39:40;2.20;99.90
37844;DHT22;63793;57.632;18.292;2023-11-21T15:42:08;2.10;99.90
37844;DHT22;63793;57.632;18.292;2023-11-21T15:44:36;2.10;99.90
37844;DHT22;63793;57.632;18.292;2023-11-21T15:47:04;2.00;99.90
37844;DHT22;63793;57.632;18.292;2023-11-21T15:49:33;1.90;99.90
37844;DHT22;63793;57.632;18.292;2023-11-21T15:52:06;1.80;99.90